createdAt,value
2022-08-22T00:01:50.898Z,6.10
2022-08-22T00:02:45.979Z,4.70
2022-08-22T00:03:04.187Z,4.63
2022-08-22T00:04:29.461Z,6.45
2022-08-22T00:07:13.915Z,4.90
2022-08-22T00:09:54.818Z,5.72
2022-08-22T00:12:29.777Z,5.95
2022-08-22T00:15:07.888Z,5.55
2022-08-22T00:18:00.432Z,4.78
2022-08-22T00:20:45.907Z,5.55
2022-08-22T00:23:23.040Z,5.82
2022-08-22T00:25:59.919Z,5.07
2022-08-22T00:28:37.251Z,4.95
2022-08-22T00:31:24.332Z,5.03
2022-08-22T00:34:03.543Z,8.20
2022-08-22T00:36:43.261Z,6.38
2022-08-22T00:39:22.035Z,6.50
2022-08-22T00:42:36.541Z,6.05
2022-08-22T00:45:29.194Z,6.13
2022-08-22T00:48:20.504Z,5.22
2022-08-22T00:51:29.236Z,7.07
2022-08-22T00:54:17.905Z,6.05
2022-08-22T00:57:30.915Z,5.22
2022-08-22T01:00:18.495Z,5.47
2022-08-22T01:03:47.675Z,5.35
2022-08-22T01:06:40.140Z,9.02
2022-08-22T01:09:24.412Z,5.22
2022-08-22T01:12:46.529Z,7.85
2022-08-22T01:15:22.801Z,5.20
2022-08-22T01:18:32.995Z,6.07
2022-08-22T01:21:56.477Z,8.23
2022-08-22T01:25:30.542Z,7.57
2022-08-22T01:28:32.644Z,6.38
2022-08-22T01:31:57.783Z,7.05
2022-08-22T01:35:25.040Z,6.93
2022-08-22T01:38:40.837Z,6.70
2022-08-22T01:41:41.812Z,10.80
2022-08-22T01:44:41.111Z,7.78
2022-08-22T01:47:19.217Z,7.65
2022-08-22T01:49:55.224Z,6.65
2022-08-22T01:52:41.239Z,8.20
2022-08-22T01:55:20.666Z,7.78
2022-08-22T01:57:56.710Z,7.35
2022-08-22T02:00:35.379Z,9.13
2022-08-22T02:03:27.010Z,8.15
2022-08-22T02:06:06.574Z,12.07
2022-08-22T02:08:48.326Z,7.03
2022-08-22T02:11:41.399Z,7.28
2022-08-22T02:14:27.264Z,7.15
2022-08-22T02:17:17.048Z,6.90
2022-08-22T02:19:59.171Z,10.38
2022-08-22T02:22:44.559Z,7.97
2022-08-22T02:25:22.672Z,10.05
2022-08-22T02:28:03.419Z,7.07
2022-08-22T02:30:51.542Z,6.88
2022-08-22T02:33:34.852Z,6.97
2022-08-22T02:36:14.535Z,7.38
2022-08-22T02:38:59.532Z,7.10
2022-08-22T02:41:44.848Z,7.00
2022-08-22T02:44:22.047Z,8.43
2022-08-22T02:46:59.854Z,9.07
2022-08-22T02:49:43.826Z,7.28
2022-08-22T02:52:19.551Z,7.35
2022-08-22T02:55:00.901Z,9.10
2022-08-22T02:57:39.859Z,8.48
2022-08-22T03:00:29.655Z,6.88
2022-08-22T03:03:16.115Z,7.80
2022-08-22T03:06:01.643Z,8.10
2022-08-22T03:08:34.375Z,7.68
2022-08-22T03:11:18.667Z,8.10
2022-08-22T03:14:04.393Z,7.32
2022-08-22T03:16:40.677Z,7.60
2022-08-22T03:19:18.466Z,6.78
2022-08-22T03:21:58.684Z,7.40
2022-08-22T03:24:36.160Z,8.20
2022-08-22T03:27:15.026Z,7.68
2022-08-22T03:30:07.027Z,7.18
2022-08-22T03:32:59.049Z,8.07
2022-08-22T03:35:40.153Z,7.07
2022-08-22T03:38:23.803Z,9.63
2022-08-22T03:41:24.114Z,8.32
2022-08-22T03:44:38.944Z,7.90
2022-08-22T03:47:53.928Z,7.70
2022-08-22T03:51:00.929Z,9.60
2022-08-22T03:54:15.346Z,9.38
2022-08-22T03:57:40.741Z,8.38
2022-08-22T04:00:39.161Z,8.30
2022-08-22T04:03:53.622Z,8.55
2022-08-22T04:07:05.919Z,9.77
2022-08-22T04:10:15.624Z,9.93
2022-08-22T04:13:15.942Z,8.90
2022-08-22T04:16:21.108Z,9.57
2022-08-22T04:19:24.737Z,8.43
2022-08-22T04:22:38.094Z,10.02
2022-08-22T04:25:13.188Z,9.15
2022-08-22T04:27:53.209Z,9.40
2022-08-22T04:30:31.413Z,8.75
2022-08-22T04:33:08.264Z,8.30
2022-08-22T04:35:46.535Z,8.30
2022-08-22T04:38:25.181Z,8.93
2022-08-22T04:41:04.530Z,7.75
2022-08-22T04:43:40.776Z,8.98
2022-08-22T04:46:20.887Z,8.10
2022-08-22T04:48:56.431Z,10.73
2022-08-22T04:51:35.229Z,9.98
2022-08-22T04:54:42.375Z,7.95
2022-08-22T04:57:40.686Z,8.50
2022-08-22T05:00:13.463Z,8.23
2022-08-22T05:02:51.667Z,8.32
2022-08-22T05:05:26.767Z,9.32
2022-08-22T05:08:00.963Z,8.95
2022-08-22T05:10:37.657Z,7.65
2022-08-22T05:13:16.190Z,7.72
2022-08-22T05:15:49.589Z,10.13
2022-08-22T05:18:25.564Z,9.07
2022-08-22T05:21:03.451Z,8.63
2022-08-22T05:23:41.198Z,9.27
2022-08-22T05:26:12.493Z,8.27
2022-08-22T05:28:47.566Z,7.78
2022-08-22T05:31:29.932Z,8.60
2022-08-22T05:34:05.223Z,7.57
2022-08-22T05:36:40.919Z,10.88
2022-08-22T05:39:17.696Z,8.15
2022-08-22T05:41:47.822Z,8.52
2022-08-22T05:44:22.014Z,8.55
2022-08-22T05:47:00.965Z,7.07
2022-08-22T05:49:38.973Z,8.63
2022-08-22T05:52:18.912Z,9.80
2022-08-22T05:54:58.230Z,8.15
2022-08-22T05:57:33.702Z,8.55
2022-08-22T06:00:09.749Z,7.10
2022-08-22T06:02:59.288Z,8.15
2022-08-22T06:05:34.280Z,10.45
2022-08-22T06:08:09.168Z,9.57
2022-08-22T06:10:46.297Z,9.27
2022-08-22T06:13:30.297Z,9.73
2022-08-22T06:16:11.737Z,9.20
2022-08-22T06:18:44.612Z,8.68
2022-08-22T06:21:21.533Z,9.85
2022-08-22T06:23:57.494Z,7.85
2022-08-22T06:26:34.665Z,10.70
2022-08-22T06:29:04.616Z,9.40
2022-08-22T06:31:37.336Z,8.68
2022-08-22T06:34:13.391Z,9.48
2022-08-22T06:36:49.392Z,8.95
2022-08-22T06:39:23.399Z,9.57
2022-08-22T06:42:01.108Z,8.75
2022-08-22T06:44:34.291Z,10.40
2022-08-22T06:47:10.321Z,6.93
2022-08-22T06:49:41.174Z,9.48
2022-08-22T06:52:15.130Z,7.93
2022-08-22T06:54:50.337Z,8.77
2022-08-22T06:57:34.126Z,7.68
2022-08-22T07:00:09.512Z,8.18
2022-08-22T07:02:45.112Z,7.22
2022-08-22T07:05:20.053Z,8.00
2022-08-22T07:07:50.092Z,9.32
2022-08-22T07:10:22.518Z,8.60
2022-08-22T07:12:57.404Z,8.82
2022-08-22T07:15:36.561Z,8.15
2022-08-22T07:18:09.781Z,7.53
2022-08-22T07:20:45.194Z,7.93
2022-08-22T07:23:31.582Z,9.45
2022-08-22T07:26:21.644Z,8.50
2022-08-22T07:28:58.503Z,8.45
2022-08-22T07:31:38.982Z,7.78
2022-08-22T07:34:29.263Z,6.13
2022-08-22T07:37:05.585Z,9.32
2022-08-22T07:39:45.761Z,9.88
2022-08-22T07:42:19.293Z,9.27
2022-08-22T07:45:08.443Z,9.43
2022-08-22T07:48:03.399Z,12.10
2022-08-22T07:50:39.352Z,8.85
2022-08-22T07:53:30.864Z,8.05
2022-08-22T07:56:03.825Z,9.10
2022-08-22T07:58:36.950Z,9.32
2022-08-22T08:01:11.002Z,7.60
2022-08-22T08:03:40.434Z,7.75
2022-08-22T08:06:11.154Z,10.15
2022-08-22T08:08:45.096Z,9.52
2022-08-22T08:11:18.918Z,8.75
2022-08-22T08:13:54.188Z,8.07
2022-08-22T08:16:28.218Z,8.20
2022-08-22T08:19:01.029Z,7.15
2022-08-22T08:21:42.450Z,8.70
2022-08-22T08:24:20.503Z,5.43
2022-08-22T08:27:18.090Z,8.23
2022-08-22T08:29:56.264Z,8.88
2022-08-22T08:32:30.754Z,7.72
2022-08-22T08:35:00.421Z,7.38
2022-08-22T08:37:41.089Z,7.90
2022-08-22T08:40:36.441Z,8.30
2022-08-22T08:43:29.561Z,5.75
2022-08-22T08:46:29.480Z,5.07
2022-08-22T08:49:39.626Z,7.65
2022-08-22T08:52:54.155Z,4.78
2022-08-22T08:55:42.184Z,4.57
2022-08-22T08:58:43.272Z,4.20
2022-08-22T09:01:47.622Z,3.58
2022-08-22T09:04:45.607Z,6.00
2022-08-22T09:07:44.822Z,5.22
2022-08-22T09:10:37.047Z,5.18
2022-08-22T09:13:40.972Z,4.15
2022-08-22T09:16:51.291Z,3.05
2022-08-22T09:20:00.787Z,4.30
2022-08-22T09:23:18.804Z,5.85
2022-08-22T09:25:56.520Z,4.38
2022-08-22T09:28:36.722Z,5.00
2022-08-22T09:31:44.919Z,2.92
2022-08-22T09:34:29.989Z,4.07
2022-08-22T09:37:21.936Z,2.63
2022-08-22T09:40:03.893Z,4.82
2022-08-22T09:42:46.404Z,3.60
2022-08-22T09:45:47.907Z,4.72
2022-08-22T09:48:44.461Z,2.72
2022-08-22T09:51:33.178Z,3.85
2022-08-22T09:54:24.780Z,4.35
2022-08-22T09:57:15.907Z,6.18
2022-08-22T10:00:16.015Z,4.70
2022-08-22T10:02:57.938Z,2.13
2022-08-22T10:05:43.892Z,2.97
2022-08-22T10:08:32.145Z,4.22
2022-08-22T10:11:28.966Z,3.35
2022-08-22T10:14:04.384Z,3.85
2022-08-22T10:16:59.111Z,2.42
2022-08-22T10:19:36.441Z,3.63
2022-08-22T10:22:30.899Z,3.80
2022-08-22T10:25:23.857Z,5.75
2022-08-22T10:28:10.508Z,2.70
2022-08-22T10:30:53.756Z,4.43
2022-08-22T10:33:30.690Z,4.38
2022-08-22T10:36:11.889Z,3.88
2022-08-22T10:38:48.132Z,5.90
2022-08-22T10:41:32.706Z,3.13
2022-08-22T10:44:11.247Z,3.78
2022-08-22T10:46:57.271Z,2.30
2022-08-22T10:49:33.306Z,4.03
2022-08-22T10:52:17.270Z,4.03
2022-08-22T10:54:53.076Z,2.95
2022-08-22T10:57:57.149Z,2.90
2022-08-22T11:00:49.743Z,2.95
2022-08-22T11:03:26.788Z,2.95
2022-08-22T11:06:01.176Z,3.50
2022-08-22T11:08:55.943Z,4.50
2022-08-22T11:11:39.728Z,2.47
2022-08-22T11:14:58.954Z,2.67
2022-08-22T11:18:21.160Z,4.20
2022-08-22T11:21:02.487Z,3.67
2022-08-22T11:23:46.464Z,3.13
2022-08-22T11:26:46.652Z,5.38
2022-08-22T11:29:44.687Z,4.30
2022-08-22T11:32:25.578Z,3.50
2022-08-22T11:35:09.314Z,5.85
2022-08-22T11:37:54.783Z,4.63
2022-08-22T11:40:36.838Z,4.85
2022-08-22T11:43:37.967Z,3.53
2022-08-22T11:46:22.819Z,3.72
2022-08-22T11:49:33.092Z,3.35
2022-08-22T11:52:30.821Z,5.10
2022-08-22T11:55:21.557Z,4.60
2022-08-22T11:57:53.854Z,3.53
2022-08-22T12:00:35.884Z,2.88
2022-08-22T12:03:34.471Z,5.10
2022-08-22T12:06:21.931Z,3.35
2022-08-22T12:09:19.828Z,2.90
2022-08-22T12:12:09.869Z,4.43
2022-08-22T12:14:48.150Z,4.88
2022-08-22T12:18:01.992Z,4.10
2022-08-22T12:21:16.291Z,3.72
2022-08-22T12:24:29.630Z,4.43
2022-08-22T12:27:33.355Z,4.35
2022-08-22T12:30:14.398Z,3.80
2022-08-22T12:33:28.018Z,3.22
2022-08-22T12:36:28.737Z,4.97
2022-08-22T12:39:27.301Z,6.78
2022-08-22T12:42:23.585Z,4.60
2022-08-22T12:45:19.996Z,3.67
2022-08-22T12:48:05.348Z,3.53
2022-08-22T12:50:48.931Z,3.65
2022-08-22T12:53:53.797Z,4.72
2022-08-22T12:56:38.409Z,4.88
2022-08-22T12:59:27.335Z,3.67
2022-08-22T13:02:03.678Z,4.78
2022-08-22T13:04:36.823Z,5.20
2022-08-22T13:07:19.679Z,5.97
2022-08-22T13:09:57.693Z,3.88
2022-08-22T13:12:33.012Z,4.75
2022-08-22T13:15:25.442Z,3.80
2022-08-22T13:18:08.707Z,5.40
2022-08-22T13:20:50.966Z,4.68
2022-08-22T13:23:27.148Z,5.10
2022-08-22T13:26:07.616Z,4.63
2022-08-22T13:28:45.320Z,6.65
2022-08-22T13:31:25.907Z,3.75
2022-08-22T13:34:01.593Z,8.25
2022-08-22T13:36:35.581Z,5.43
2022-08-22T13:39:24.325Z,4.40
2022-08-22T13:41:56.634Z,4.07
2022-08-22T13:44:29.737Z,2.92
2022-08-22T13:47:14.635Z,4.85
2022-08-22T13:49:47.856Z,5.43
2022-08-22T13:52:30.483Z,3.45
2022-08-22T13:55:09.212Z,3.28
2022-08-22T13:57:51.761Z,2.90
2022-08-22T14:01:19.710Z,2.97
2022-08-22T14:03:58.528Z,6.22
2022-08-22T14:06:41.401Z,5.82
2022-08-22T14:09:31.211Z,4.90
2022-08-22T14:12:13.598Z,4.03
2022-08-22T14:14:46.429Z,3.30
2022-08-22T14:17:24.028Z,2.67
2022-08-22T14:20:01.775Z,4.28
2022-08-22T14:22:35.818Z,3.20
2022-08-22T14:25:10.302Z,4.93
2022-08-22T14:27:57.984Z,5.60
2022-08-22T14:30:31.153Z,3.00
2022-08-22T14:33:21.716Z,4.03
2022-08-22T14:35:58.096Z,4.72
2022-08-22T14:38:39.624Z,3.85
2022-08-22T14:41:56.135Z,2.45
2022-08-22T14:44:26.119Z,3.13
2022-08-22T14:46:58.981Z,5.38
2022-08-22T14:49:38.190Z,2.75
2022-08-22T14:52:19.577Z,3.72
2022-08-22T14:54:48.432Z,3.65
2022-08-22T14:57:20.237Z,3.97
2022-08-22T14:59:53.227Z,5.05
2022-08-22T15:02:30.327Z,4.93
2022-08-22T15:05:12.963Z,3.67
2022-08-22T15:07:43.086Z,3.05
2022-08-22T15:10:25.957Z,3.67
2022-08-22T15:13:03.921Z,2.80
2022-08-22T15:15:41.203Z,3.58
2022-08-22T15:18:36.535Z,4.95
2022-08-22T15:21:10.079Z,2.70
2022-08-22T15:23:45.283Z,2.97
2022-08-22T15:26:25.717Z,4.60
2022-08-22T15:29:17.330Z,4.75
2022-08-22T15:31:47.484Z,2.60
2022-08-22T15:34:25.312Z,2.83
2022-08-22T15:37:30.064Z,4.93
2022-08-22T15:40:12.666Z,5.13
2022-08-22T15:42:46.632Z,5.13
2022-08-22T15:45:40.606Z,6.47
2022-08-22T15:48:24.715Z,3.17
2022-08-22T15:51:01.363Z,2.75
2022-08-22T15:53:53.858Z,3.28
2022-08-22T15:56:29.029Z,3.70
2022-08-22T15:59:48.148Z,4.18
2022-08-22T16:02:34.921Z,5.70
2022-08-22T16:05:27.493Z,5.45
2022-08-22T16:08:07.342Z,3.30
2022-08-22T16:10:41.427Z,3.65
2022-08-22T16:13:38.223Z,3.95
2022-08-22T16:16:13.329Z,4.47
2022-08-22T16:19:19.323Z,3.70
2022-08-22T16:22:18.949Z,3.15
2022-08-22T16:25:10.348Z,4.20
2022-08-22T16:27:58.286Z,3.45
2022-08-22T16:30:39.772Z,3.25
2022-08-22T16:33:18.304Z,4.00
2022-08-22T16:36:42.371Z,4.75
2022-08-22T16:39:33.262Z,3.95
2022-08-22T16:42:26.016Z,4.57
2022-08-22T16:45:11.858Z,3.38
2022-08-22T16:47:52.866Z,4.72
2022-08-22T16:50:34.422Z,4.05
2022-08-22T16:53:10.016Z,4.18
2022-08-22T16:56:18.045Z,3.75
2022-08-22T16:59:22.486Z,3.13
2022-08-22T17:02:33.271Z,2.72
2022-08-22T17:05:23.488Z,2.97
2022-08-22T17:08:28.382Z,3.72
2022-08-22T17:11:12.716Z,2.50
2022-08-22T17:14:17.919Z,2.55
2022-08-22T17:17:11.589Z,2.65
2022-08-22T17:19:57.684Z,4.05
2022-08-22T17:22:40.148Z,3.92
2022-08-22T17:25:26.160Z,4.97
2022-08-22T17:28:13.205Z,3.72
2022-08-22T17:30:51.334Z,2.78
2022-08-22T17:33:56.193Z,2.78
2022-08-22T17:36:48.249Z,5.35
2022-08-22T17:39:42.994Z,3.25
2022-08-22T17:42:37.555Z,2.60
2022-08-22T17:45:18.917Z,3.47
2022-08-22T17:47:56.253Z,3.83
2022-08-22T17:50:35.308Z,3.20
2022-08-22T17:53:10.293Z,3.17
2022-08-22T17:56:01.278Z,4.70
2022-08-22T17:58:43.654Z,3.50
2022-08-22T18:01:22.687Z,3.45
2022-08-22T18:04:00.312Z,2.90
2022-08-22T18:06:36.556Z,2.85
2022-08-22T18:09:19.649Z,3.70
2022-08-22T18:11:55.514Z,3.88
2022-08-22T18:14:37.146Z,2.55
2022-08-22T18:17:21.441Z,3.10
2022-08-22T18:20:03.446Z,3.10
2022-08-22T18:22:41.034Z,3.67
2022-08-22T18:25:31.413Z,4.65
2022-08-22T18:28:11.001Z,3.25
2022-08-22T18:30:55.819Z,2.95
2022-08-22T18:33:34.876Z,4.45
2022-08-22T18:36:12.683Z,2.80
2022-08-22T18:38:54.906Z,2.75
2022-08-22T18:41:33.286Z,3.83
2022-08-22T18:44:12.291Z,2.80
2022-08-22T18:46:46.330Z,3.25
2022-08-22T18:49:46.012Z,6.10
2022-08-22T18:52:39.816Z,5.35
2022-08-22T18:55:50.300Z,3.58
2022-08-22T18:58:45.730Z,3.28
2022-08-22T19:01:50.708Z,3.10
2022-08-22T19:04:46.996Z,4.57
2022-08-22T19:07:41.784Z,4.22
2022-08-22T19:10:46.167Z,2.60
2022-08-22T19:13:50.139Z,3.25
2022-08-22T19:17:12.824Z,3.50
2022-08-22T19:20:17.116Z,3.25
2022-08-22T19:22:45.878Z,3.42
2022-08-22T19:25:26.403Z,4.15
2022-08-22T19:28:26.703Z,3.67
2022-08-22T19:31:24.199Z,4.50
2022-08-22T19:34:17.623Z,4.07
2022-08-22T19:37:07.402Z,4.95
2022-08-22T19:39:55.505Z,6.55
2022-08-22T19:42:34.641Z,4.97
2022-08-22T19:45:21.489Z,4.43
2022-08-22T19:48:10.483Z,4.95
2022-08-22T19:50:42.119Z,5.43
2022-08-22T19:53:41.105Z,4.43
2022-08-22T19:56:28.458Z,4.00
2022-08-22T19:59:24.055Z,5.90
2022-08-22T20:02:06.539Z,4.80
2022-08-22T20:05:22.195Z,5.00
2022-08-22T20:08:19.080Z,5.97
2022-08-22T20:11:03.902Z,4.22
2022-08-22T20:13:36.598Z,6.13
2022-08-22T20:16:16.144Z,3.95
2022-08-22T20:19:08.484Z,4.28
2022-08-22T20:21:49.036Z,4.13
2022-08-22T20:24:27.254Z,4.18
2022-08-22T20:27:15.609Z,5.15
2022-08-22T20:29:53.910Z,4.65
2022-08-22T20:32:26.279Z,4.93
2022-08-22T20:35:01.528Z,4.45
2022-08-22T20:38:03.311Z,4.90
2022-08-22T20:40:56.774Z,5.90
2022-08-22T20:43:35.143Z,5.82
2022-08-22T20:46:27.521Z,6.70
2022-08-22T20:48:57.509Z,6.25
2022-08-22T20:51:30.351Z,6.72
2022-08-22T20:54:02.397Z,4.45
2022-08-22T20:56:52.791Z,4.60
2022-08-22T20:59:29.551Z,4.68
2022-08-22T21:02:11.043Z,9.00
2022-08-22T21:04:57.984Z,4.85
2022-08-22T21:07:33.817Z,4.80
2022-08-22T21:10:25.749Z,5.47
2022-08-22T21:13:13.123Z,5.22
2022-08-22T21:15:44.870Z,5.90
2022-08-22T21:18:24.761Z,5.97
2022-08-22T21:20:53.817Z,4.85
2022-08-22T21:23:22.128Z,6.35
2022-08-22T21:26:01.267Z,6.20
2022-08-22T21:28:34.505Z,4.78
2022-08-22T21:31:13.486Z,4.60
2022-08-22T21:33:49.814Z,4.45
2022-08-22T21:36:22.916Z,5.60
2022-08-22T21:38:56.834Z,4.57
2022-08-22T21:41:33.375Z,4.60
2022-08-22T21:44:24.789Z,5.93
2022-08-22T21:46:53.896Z,5.40
2022-08-22T21:49:29.253Z,4.78
2022-08-22T21:51:57.685Z,4.95
2022-08-22T21:54:42.609Z,5.38
2022-08-22T21:57:36.482Z,5.68
2022-08-22T22:00:12.838Z,6.07
2022-08-22T22:02:43.849Z,5.68
2022-08-22T22:05:16.984Z,5.40
2022-08-22T22:07:48.393Z,5.35
2022-08-22T22:10:20.616Z,6.60
2022-08-22T22:12:52.262Z,9.48
2022-08-22T22:15:25.515Z,5.13
2022-08-22T22:17:54.446Z,4.80
2022-08-22T22:20:27.582Z,6.55
2022-08-22T22:22:56.435Z,4.82
2022-08-22T22:25:40.825Z,6.25
2022-08-22T22:28:15.782Z,5.22
2022-08-22T22:30:45.442Z,5.53
2022-08-22T22:33:13.841Z,5.97
2022-08-22T22:35:43.434Z,7.07
2022-08-22T22:38:13.475Z,6.45
2022-08-22T22:40:42.475Z,5.28
2022-08-22T22:43:12.073Z,5.55
2022-08-22T22:45:41.048Z,6.45
2022-08-22T22:48:10.057Z,5.60
2022-08-22T22:50:40.822Z,5.85
2022-08-22T22:53:11.178Z,4.97
2022-08-22T22:55:41.762Z,6.10
2022-08-22T22:58:10.505Z,6.63
2022-08-22T23:00:38.731Z,5.45
2022-08-22T23:03:07.490Z,5.95
2022-08-22T23:05:36.785Z,6.47
2022-08-22T23:08:06.050Z,5.10
2022-08-22T23:10:35.515Z,6.95
2022-08-22T23:13:05.632Z,6.97
2022-08-22T23:15:33.778Z,5.45
2022-08-22T23:18:02.367Z,6.15
2022-08-22T23:20:30.500Z,8.13
2022-08-22T23:22:59.503Z,5.75
2022-08-22T23:25:28.069Z,6.97
2022-08-22T23:28:00.107Z,6.65
2022-08-22T23:30:28.350Z,6.38
2022-08-22T23:32:56.519Z,5.38
2022-08-22T23:35:24.688Z,7.35
2022-08-22T23:37:52.878Z,5.70
2022-08-22T23:40:21.161Z,6.22
2022-08-22T23:42:49.320Z,6.28
2022-08-22T23:45:18.978Z,5.93
2022-08-22T23:47:47.478Z,6.00
2022-08-22T23:50:15.698Z,7.38
2022-08-22T23:52:43.806Z,5.32
2022-08-22T23:55:11.984Z,6.35
2022-08-22T23:57:40.130Z,5.78
